Главная страница
METAR-TAF:

METAR-TAF

Аэропорты :

Sindal, Дания

широта: 57-30N, долгота: 010-13E, высота над уровнем моря: 28 м

Текущие метеонаблюдения

Эта сводка был подготовлена 5 часа и 32 минут назад, в 13:50 UTC
Ветер 16 Узел от западный-юго-западный
Температура 12°C
Влажность 82%
Давление 1015 hPa
Видимость 10 км и более
небольшая облачность на высоте 1000 фута
Рассеянная облачность на высоте 4000 фута

METAR: EKSN 221350Z 24016KT 9999 FEW010 BKN040 12/09 Q1015

Время: 21:22 (19:22 UTC)

Прогноз

Эта сводка был подготовлена 10 часа и 24 минут назад, в 08:58 UTC
Прогноз действительный с 22-го 09 UTC до 22-го 15 UTC
Ветер 10 Узел от юго-западный
Видимость: 4000 м
Рассеянная облачность на высоте 500 фута
дымка
изменения
С 22-го 09 UTC до 22-го 11 UTC
Видимость: 9000 м
Рассеянная облачность на высоте 2500 фута

TAF: EKSN 220858Z 2209/2215 23010KT 4000 BR BKN005 BECMG 2209/2211 9000 NSW BKN025

Метеонаблюдения и прогнозы для более 4000 аэропортов (сводки METAR и TAF).

Имеющиеся станции представлены на карте желтыми и красными точками.

Чтобы увидеть название станции, наведите на нее мышь.

Затем щелкните, чтобы увидеть метеонаблюдения и метеопрогнозы.

Управление картой: чтобы увеличить масштаб, щелкните зеленые кнопки с черным крестиком; чтобы уменьшить масштаб, щелкните зеленую кнопку с тире; для просмотра соседних карт щелкайте зеленые стрелки.


METAR-TAF: